sensor_id;sensor_type;location;lat;lon;timestamp;temperature;humidity
1075;DHT22;526;51.392;12.448;2023-08-21T04:00:40;20.20;97.30
1075;DHT22;526;51.392;12.448;2023-08-21T04:03:06;20.20;97.30
1075;DHT22;526;51.392;12.448;2023-08-21T04:05:31;20.20;97.30
1075;DHT22;526;51.392;12.448;2023-08-21T04:07:57;20.20;97.30
1075;DHT22;526;51.392;12.448;2023-08-21T04:10:22;20.20;97.30
1075;DHT22;526;51.392;12.448;2023-08-21T04:12:48;20.10;97.30
1075;DHT22;526;51.392;12.448;2023-08-21T04:15:14;20.10;97.30
1075;DHT22;526;51.392;12.448;2023-08-21T04:17:39;20.10;97.30
1075;DHT22;526;51.392;12.448;2023-08-21T04:20:05;20.10;97.30
1075;DHT22;526;51.392;12.448;2023-08-21T04:22:31;20.10;97.30
1075;DHT22;526;51.392;12.448;2023-08-21T04:24:57;20.10;97.30
1075;DHT22;526;51.392;12.448;2023-08-21T04:27:22;20.10;97.30
1075;DHT22;526;51.392;12.448;2023-08-21T04:29:48;20.10;97.30
1075;DHT22;526;51.392;12.448;2023-08-21T04:32:13;20.10;97.30
1075;DHT22;526;51.392;12.448;2023-08-21T04:34:39;20.20;97.30
1075;DHT22;526;51.392;12.448;2023-08-21T04:37:04;20.20;97.30
1075;DHT22;526;51.392;12.448;2023-08-21T04:39:30;20.20;97.30
1075;DHT22;526;51.392;12.448;2023-08-21T04:41:56;20.20;97.30
1075;DHT22;526;51.392;12.448;2023-08-21T04:44:21;20.20;97.30
1075;DHT22;526;51.392;12.448;2023-08-21T04:46:48;20.20;97.30
1075;DHT22;526;51.392;12.448;2023-08-21T04:49:14;20.20;97.30
1075;DHT22;526;51.392;12.448;2023-08-21T04:51:39;20.20;97.30
1075;DHT22;526;51.392;12.448;2023-08-21T04:54:05;20.20;97.30
1075;DHT22;526;51.392;12.448;2023-08-21T04:56:30;20.20;97.30
1075;DHT22;526;51.392;12.448;2023-08-21T04:58:56;20.20;97.30
1075;DHT22;526;51.392;12.448;2023-08-21T05:01:21;20.10;97.30
1075;DHT22;526;51.392;12.448;2023-08-21T05:03:47;20.10;97.30
1075;DHT22;526;51.392;12.448;2023-08-21T05:06:13;20.10;97.30
1075;DHT22;526;51.392;12.448;2023-08-21T05:08:38;20.10;97.30
1075;DHT22;526;51.392;12.448;2023-08-21T05:11:04;20.10;97.30
1075;DHT22;526;51.392;12.448;2023-08-21T05:13:29;20.20;97.30
1075;DHT22;526;51.392;12.448;2023-08-21T05:15:56;20.20;97.30
1075;DHT22;526;51.392;12.448;2023-08-21T05:18:23;20.20;97.30
1075;DHT22;526;51.392;12.448;2023-08-21T05:20:49;20.20;97.30
1075;DHT22;526;51.392;12.448;2023-08-21T05:23:15;20.30;97.30
1075;DHT22;526;51.392;12.448;2023-08-21T05:25:45;20.40;97.30
1075;DHT22;526;51.392;12.448;2023-08-21T05:28:11;20.40;97.30
1075;DHT22;526;51.392;12.448;2023-08-21T05:30:36;20.50;97.30
1075;DHT22;526;51.392;12.448;2023-08-21T05:33:02;20.60;97.30
1075;DHT22;526;51.392;12.448;2023-08-21T05:35:32;20.70;97.30
1075;DHT22;526;51.392;12.448;2023-08-21T05:37:57;20.80;97.30
1075;DHT22;526;51.392;12.448;2023-08-21T05:40:23;20.90;97.30
1075;DHT22;526;51.392;12.448;2023-08-21T05:42:48;20.90;97.30
1075;DHT22;526;51.392;12.448;2023-08-21T05:45:14;21.00;97.30
1075;DHT22;526;51.392;12.448;2023-08-21T05:47:40;21.10;97.30
1075;DHT22;526;51.392;12.448;2023-08-21T05:50:05;21.10;97.30
1075;DHT22;526;51.392;12.448;2023-08-21T05:52:31;21.20;97.30
1075;DHT22;526;51.392;12.448;2023-08-21T05:54:57;21.20;97.30
1075;DHT22;526;51.392;12.448;2023-08-21T05:57:22;21.30;97.30
1075;DHT22;526;51.392;12.448;2023-08-21T05:59:48;21.30;97.30
1075;DHT22;526;51.392;12.448;2023-08-21T06:02:13;21.30;97.30
1075;DHT22;526;51.392;12.448;2023-08-21T06:04:42;21.40;97.30
1075;DHT22;526;51.392;12.448;2023-08-21T06:07:08;21.40;97.30
1075;DHT22;526;51.392;12.448;2023-08-21T06:09:34;21.50;97.30
1075;DHT22;526;51.392;12.448;2023-08-21T06:12:01;21.50;97.30
1075;DHT22;526;51.392;12.448;2023-08-21T06:14:27;21.60;97.30
1075;DHT22;526;51.392;12.448;2023-08-21T06:17:05;21.60;97.30
1075;DHT22;526;51.392;12.448;2023-08-21T06:19:30;21.70;97.30
1075;DHT22;526;51.392;12.448;2023-08-21T06:21:56;21.70;97.30
1075;DHT22;526;51.392;12.448;2023-08-21T06:24:23;21.80;97.30
1075;DHT22;526;51.392;12.448;2023-08-21T06:26:48;21.80;97.30
1075;DHT22;526;51.392;12.448;2023-08-21T06:29:14;21.90;97.30
1075;DHT22;526;51.392;12.448;2023-08-21T06:31:40;21.90;97.30
1075;DHT22;526;51.392;12.448;2023-08-21T06:34:05;21.90;97.30
1075;DHT22;526;51.392;12.448;2023-08-21T06:36:31;22.00;97.30
1075;DHT22;526;51.392;12.448;2023-08-21T06:38:56;22.00;97.30
1075;DHT22;526;51.392;12.448;2023-08-21T06:41:22;22.10;97.30
1075;DHT22;526;51.392;12.448;2023-08-21T06:43:48;22.10;97.30
1075;DHT22;526;51.392;12.448;2023-08-21T06:46:13;22.20;97.30
1075;DHT22;526;51.392;12.448;2023-08-21T06:48:40;22.20;97.30
1075;DHT22;526;51.392;12.448;2023-08-21T06:51:09;22.20;97.30
1075;DHT22;526;51.392;12.448;2023-08-21T06:53:34;22.30;97.30
1075;DHT22;526;51.392;12.448;2023-08-21T06:56:00;22.30;97.30
1075;DHT22;526;51.392;12.448;2023-08-21T06:58:26;22.40;97.30
1075;DHT22;526;51.392;12.448;2023-08-21T07:00:53;22.40;97.30
1075;DHT22;526;51.392;12.448;2023-08-21T07:03:19;22.40;97.30
1075;DHT22;526;51.392;12.448;2023-08-21T07:05:59;22.50;97.30
1075;DHT22;526;51.392;12.448;2023-08-21T07:08:26;22.50;97.30
1075;DHT22;526;51.392;12.448;2023-08-21T07:10:52;22.60;97.30
1075;DHT22;526;51.392;12.448;2023-08-21T07:13:19;22.60;97.30
1075;DHT22;526;51.392;12.448;2023-08-21T07:15:46;22.60;97.30
1075;DHT22;526;51.392;12.448;2023-08-21T07:18:12;22.70;97.30
1075;DHT22;526;51.392;12.448;2023-08-21T07:20:38;22.70;97.30
1075;DHT22;526;51.392;12.448;2023-08-21T07:23:03;22.70;97.30
1075;DHT22;526;51.392;12.448;2023-08-21T07:25:29;22.80;97.30
1075;DHT22;526;51.392;12.448;2023-08-21T07:27:55;22.80;97.30
1075;DHT22;526;51.392;12.448;2023-08-21T07:30:21;22.80;97.30
1075;DHT22;526;51.392;12.448;2023-08-21T07:32:48;22.80;97.30
1075;DHT22;526;51.392;12.448;2023-08-21T07:35:13;22.80;97.30
1075;DHT22;526;51.392;12.448;2023-08-21T07:37:39;22.80;97.30
1075;DHT22;526;51.392;12.448;2023-08-21T07:40:07;22.80;97.30
1075;DHT22;526;51.392;12.448;2023-08-21T07:42:32;22.70;97.30
1075;DHT22;526;51.392;12.448;2023-08-21T07:44:58;22.70;97.30
1075;DHT22;526;51.392;12.448;2023-08-21T07:47:24;22.70;97.30
1075;DHT22;526;51.392;12.448;2023-08-21T07:49:51;22.70;97.30
1075;DHT22;526;51.392;12.448;2023-08-21T07:52:17;22.70;97.30
1075;DHT22;526;51.392;12.448;2023-08-21T07:54:42;22.70;97.30
1075;DHT22;526;51.392;12.448;2023-08-21T07:57:08;22.70;97.30
1075;DHT22;526;51.392;12.448;2023-08-21T07:59:33;22.70;97.30
1075;DHT22;526;51.392;12.448;2023-08-21T08:01:59;22.70;97.30
1075;DHT22;526;51.392;12.448;2023-08-21T08:04:25;22.60;97.30
1075;DHT22;526;51.392;12.448;2023-08-21T08:06:52;22.60;97.30
1075;DHT22;526;51.392;12.448;2023-08-21T08:09:17;22.60;97.30
1075;DHT22;526;51.392;12.448;2023-08-21T08:11:43;22.60;97.30
1075;DHT22;526;51.392;12.448;2023-08-21T08:14:09;22.60;97.30
1075;DHT22;526;51.392;12.448;2023-08-21T08:16:34;22.60;97.30
1075;DHT22;526;51.392;12.448;2023-08-21T08:19:00;22.70;97.30
1075;DHT22;526;51.392;12.448;2023-08-21T08:21:25;22.70;97.30
1075;DHT22;526;51.392;12.448;2023-08-21T08:23:51;22.70;97.30
1075;DHT22;526;51.392;12.448;2023-08-21T08:26:16;22.70;97.30
1075;DHT22;526;51.392;12.448;2023-08-21T08:28:42;22.80;97.30
1075;DHT22;526;51.392;12.448;2023-08-21T08:31:15;22.80;97.30
1075;DHT22;526;51.392;12.448;2023-08-21T08:33:40;22.90;97.30
1075;DHT22;526;51.392;12.448;2023-08-21T08:36:06;22.90;97.30
1075;DHT22;526;51.392;12.448;2023-08-21T08:38:31;22.90;97.30
1075;DHT22;526;51.392;12.448;2023-08-21T08:40:57;23.00;97.30
1075;DHT22;526;51.392;12.448;2023-08-21T08:43:25;23.00;97.30
1075;DHT22;526;51.392;12.448;2023-08-21T08:45:52;23.10;97.30
1075;DHT22;526;51.392;12.448;2023-08-21T08:48:20;23.30;97.30
1075;DHT22;526;51.392;12.448;2023-08-21T08:50:47;23.40;97.30
1075;DHT22;526;51.392;12.448;2023-08-21T08:53:15;23.50;97.30
1075;DHT22;526;51.392;12.448;2023-08-21T08:55:41;23.50;97.30
1075;DHT22;526;51.392;12.448;2023-08-21T08:58:07;23.60;97.30
1075;DHT22;526;51.392;12.448;2023-08-21T09:00:32;23.70;97.30
1075;DHT22;526;51.392;12.448;2023-08-21T09:02:58;23.80;97.30
1075;DHT22;526;51.392;12.448;2023-08-21T09:05:24;23.90;97.30
1075;DHT22;526;51.392;12.448;2023-08-21T09:10:33;24.00;97.30
1075;DHT22;526;51.392;12.448;2023-08-21T09:13:01;24.10;97.30
1075;DHT22;526;51.392;12.448;2023-08-21T09:15:33;24.20;97.30
1075;DHT22;526;51.392;12.448;2023-08-21T09:18:01;24.20;97.30
1075;DHT22;526;51.392;12.448;2023-08-21T09:20:26;24.30;97.30
1075;DHT22;526;51.392;12.448;2023-08-21T09:22:55;24.30;97.30
1075;DHT22;526;51.392;12.448;2023-08-21T09:25:22;24.40;97.30
1075;DHT22;526;51.392;12.448;2023-08-21T09:27:51;24.50;97.30
1075;DHT22;526;51.392;12.448;2023-08-21T09:30:17;24.50;97.30
1075;DHT22;526;51.392;12.448;2023-08-21T09:35:18;24.70;97.30
1075;DHT22;526;51.392;12.448;2023-08-21T09:37:46;24.70;97.30
1075;DHT22;526;51.392;12.448;2023-08-21T09:40:12;24.80;97.30
1075;DHT22;526;51.392;12.448;2023-08-21T09:42:39;24.80;97.30
1075;DHT22;526;51.392;12.448;2023-08-21T09:45:06;24.90;97.30
1075;DHT22;526;51.392;12.448;2023-08-21T09:47:32;24.90;97.30
1075;DHT22;526;51.392;12.448;2023-08-21T09:49:59;24.90;97.30
1075;DHT22;526;51.392;12.448;2023-08-21T09:52:26;25.00;97.30
1075;DHT22;526;51.392;12.448;2023-08-21T09:54:53;25.00;97.30
1075;DHT22;526;51.392;12.448;2023-08-21T09:57:22;25.10;97.30
1075;DHT22;526;51.392;12.448;2023-08-21T09:59:52;25.20;97.30
1075;DHT22;526;51.392;12.448;2023-08-21T10:02:18;25.30;96.40
1075;DHT22;526;51.392;12.448;2023-08-21T10:04:45;25.40;96.60
1075;DHT22;526;51.392;12.448;2023-08-21T10:07:11;25.40;97.00
1075;DHT22;526;51.392;12.448;2023-08-21T10:09:40;25.50;96.90
1075;DHT22;526;51.392;12.448;2023-08-21T10:12:08;25.50;96.40
1075;DHT22;526;51.392;12.448;2023-08-21T10:14:35;25.50;95.00
1075;DHT22;526;51.392;12.448;2023-08-21T10:17:01;25.60;95.30
1075;DHT22;526;51.392;12.448;2023-08-21T10:19:31;25.60;94.60
1075;DHT22;526;51.392;12.448;2023-08-21T10:21:57;25.60;92.70
1075;DHT22;526;51.392;12.448;2023-08-21T10:24:32;25.60;91.60
1075;DHT22;526;51.392;12.448;2023-08-21T10:29:26;25.80;91.30
1075;DHT22;526;51.392;12.448;2023-08-21T10:32:00;25.80;90.80
1075;DHT22;526;51.392;12.448;2023-08-21T10:34:32;25.90;91.10
1075;DHT22;526;51.392;12.448;2023-08-21T10:37:09;26.00;90.00
1075;DHT22;526;51.392;12.448;2023-08-21T10:39:37;26.10;87.40
1075;DHT22;526;51.392;12.448;2023-08-21T10:49:40;26.40;87.50
1075;DHT22;526;51.392;12.448;2023-08-21T10:52:08;26.50;88.50
1075;DHT22;526;51.392;12.448;2023-08-21T10:54:48;26.60;87.90
1075;DHT22;526;51.392;12.448;2023-08-21T10:57:14;26.70;86.50
1075;DHT22;526;51.392;12.448;2023-08-21T10:59:53;26.70;87.00
1075;DHT22;526;51.392;12.448;2023-08-21T11:02:19;26.80;85.70
1075;DHT22;526;51.392;12.448;2023-08-21T11:04:44;26.90;87.10
1075;DHT22;526;51.392;12.448;2023-08-21T11:07:10;26.90;86.70
1075;DHT22;526;51.392;12.448;2023-08-21T11:09:36;26.90;86.40
1075;DHT22;526;51.392;12.448;2023-08-21T11:12:09;27.00;86.60
1075;DHT22;526;51.392;12.448;2023-08-21T11:14:36;27.00;87.10
1075;DHT22;526;51.392;12.448;2023-08-21T11:17:02;27.10;87.60
1075;DHT22;526;51.392;12.448;2023-08-21T11:19:31;27.20;88.20
1075;DHT22;526;51.392;12.448;2023-08-21T11:21:57;27.30;87.40
1075;DHT22;526;51.392;12.448;2023-08-21T11:24:39;27.40;87.40
1075;DHT22;526;51.392;12.448;2023-08-21T11:27:05;27.40;88.40
1075;DHT22;526;51.392;12.448;2023-08-21T11:29:42;27.50;89.10
1075;DHT22;526;51.392;12.448;2023-08-21T11:32:09;27.70;89.60
1075;DHT22;526;51.392;12.448;2023-08-21T11:34:35;27.70;87.50
1075;DHT22;526;51.392;12.448;2023-08-21T11:37:01;27.80;88.60
1075;DHT22;526;51.392;12.448;2023-08-21T11:39:26;27.90;88.10
1075;DHT22;526;51.392;12.448;2023-08-21T11:41:58;27.90;87.10
1075;DHT22;526;51.392;12.448;2023-08-21T11:44:24;27.90;86.20
1075;DHT22;526;51.392;12.448;2023-08-21T11:46:51;27.90;86.60
1075;DHT22;526;51.392;12.448;2023-08-21T11:49:19;27.90;85.60
1075;DHT22;526;51.392;12.448;2023-08-21T11:51:45;27.90;86.20
1075;DHT22;526;51.392;12.448;2023-08-21T11:54:11;28.00;86.50
1075;DHT22;526;51.392;12.448;2023-08-21T11:56:38;28.00;86.40
1075;DHT22;526;51.392;12.448;2023-08-21T11:59:04;28.10;86.80
1075;DHT22;526;51.392;12.448;2023-08-21T12:01:33;28.20;86.90
1075;DHT22;526;51.392;12.448;2023-08-21T12:03:59;28.30;86.20
1075;DHT22;526;51.392;12.448;2023-08-21T12:06:25;28.40;86.30
1075;DHT22;526;51.392;12.448;2023-08-21T12:08:51;28.40;85.60
1075;DHT22;526;51.392;12.448;2023-08-21T12:11:17;28.50;86.90
1075;DHT22;526;51.392;12.448;2023-08-21T12:13:42;28.60;86.10
1075;DHT22;526;51.392;12.448;2023-08-21T12:16:08;28.70;86.60
1075;DHT22;526;51.392;12.448;2023-08-21T12:18:34;28.80;86.20
1075;DHT22;526;51.392;12.448;2023-08-21T12:20:59;28.90;86.10
1075;DHT22;526;51.392;12.448;2023-08-21T12:23:25;29.00;85.80
1075;DHT22;526;51.392;12.448;2023-08-21T12:25:50;29.10;86.40
1075;DHT22;526;51.392;12.448;2023-08-21T12:28:16;29.20;86.80
1075;DHT22;526;51.392;12.448;2023-08-21T12:30:42;29.20;85.80
1075;DHT22;526;51.392;12.448;2023-08-21T12:33:07;29.20;85.50
1075;DHT22;526;51.392;12.448;2023-08-21T12:35:33;29.30;85.80
1075;DHT22;526;51.392;12.448;2023-08-21T12:37:58;29.30;85.80
1075;DHT22;526;51.392;12.448;2023-08-21T12:40:24;29.50;86.80
1075;DHT22;526;51.392;12.448;2023-08-21T12:42:50;29.60;86.20
1075;DHT22;526;51.392;12.448;2023-08-21T12:45:16;29.70;86.20
1075;DHT22;526;51.392;12.448;2023-08-21T12:47:42;29.80;84.50
1075;DHT22;526;51.392;12.448;2023-08-21T12:50:08;29.90;85.90
1075;DHT22;526;51.392;12.448;2023-08-21T12:52:34;30.00;85.90
1075;DHT22;526;51.392;12.448;2023-08-21T12:54:59;30.10;86.50
1075;DHT22;526;51.392;12.448;2023-08-21T12:57:28;30.10;85.30
1075;DHT22;526;51.392;12.448;2023-08-21T12:59:54;30.10;85.10
1075;DHT22;526;51.392;12.448;2023-08-21T13:02:19;30.20;84.20
1075;DHT22;526;51.392;12.448;2023-08-21T13:04:45;30.20;84.90
1075;DHT22;526;51.392;12.448;2023-08-21T13:07:10;30.30;84.10
1075;DHT22;526;51.392;12.448;2023-08-21T13:09:36;30.30;82.30
1075;DHT22;526;51.392;12.448;2023-08-21T13:12:02;30.30;82.20
1075;DHT22;526;51.392;12.448;2023-08-21T13:14:28;30.30;84.90
1075;DHT22;526;51.392;12.448;2023-08-21T13:16:53;30.40;84.80
1075;DHT22;526;51.392;12.448;2023-08-21T13:19:19;30.50;84.60
1075;DHT22;526;51.392;12.448;2023-08-21T13:21:44;30.70;84.00
1075;DHT22;526;51.392;12.448;2023-08-21T13:24:10;30.70;84.20
1075;DHT22;526;51.392;12.448;2023-08-21T13:26:36;30.80;84.20
1075;DHT22;526;51.392;12.448;2023-08-21T13:29:01;30.80;81.70
1075;DHT22;526;51.392;12.448;2023-08-21T13:31:27;30.70;81.50
1075;DHT22;526;51.392;12.448;2023-08-21T13:33:54;30.70;81.50
1075;DHT22;526;51.392;12.448;2023-08-21T13:36:19;30.70;81.10
1075;DHT22;526;51.392;12.448;2023-08-21T13:38:47;30.70;80.10
1075;DHT22;526;51.392;12.448;2023-08-21T13:41:12;30.80;82.10
1075;DHT22;526;51.392;12.448;2023-08-21T13:43:38;30.90;82.80
1075;DHT22;526;51.392;12.448;2023-08-21T13:46:04;30.90;80.10
1075;DHT22;526;51.392;12.448;2023-08-21T13:48:33;30.90;80.10
1075;DHT22;526;51.392;12.448;2023-08-21T13:50:58;30.90;80.30
1075;DHT22;526;51.392;12.448;2023-08-21T13:53:24;30.80;79.80
1075;DHT22;526;51.392;12.448;2023-08-21T13:55:50;30.80;80.00
1075;DHT22;526;51.392;12.448;2023-08-21T13:58:16;30.90;80.50
1075;DHT22;526;51.392;12.448;2023-08-21T14:00:41;30.90;80.00
1075;DHT22;526;51.392;12.448;2023-08-21T14:03:07;30.90;80.90
1075;DHT22;526;51.392;12.448;2023-08-21T14:05:32;30.90;80.90
1075;DHT22;526;51.392;12.448;2023-08-21T14:07:59;30.90;81.10
1075;DHT22;526;51.392;12.448;2023-08-21T14:10:25;31.00;81.70
1075;DHT22;526;51.392;12.448;2023-08-21T14:12:51;31.00;82.10
1075;DHT22;526;51.392;12.448;2023-08-21T14:15:17;31.10;81.40
1075;DHT22;526;51.392;12.448;2023-08-21T14:17:44;31.10;81.50
1075;DHT22;526;51.392;12.448;2023-08-21T14:20:10;31.20;81.70
1075;DHT22;526;51.392;12.448;2023-08-21T14:22:36;31.20;80.60
1075;DHT22;526;51.392;12.448;2023-08-21T14:25:03;31.10;81.10
1075;DHT22;526;51.392;12.448;2023-08-21T14:27:31;31.20;81.90
1075;DHT22;526;51.392;12.448;2023-08-21T14:29:57;31.30;82.80
1075;DHT22;526;51.392;12.448;2023-08-21T14:32:23;31.40;82.00
1075;DHT22;526;51.392;12.448;2023-08-21T14:34:48;31.50;81.80
1075;DHT22;526;51.392;12.448;2023-08-21T14:37:14;31.50;82.00
1075;DHT22;526;51.392;12.448;2023-08-21T14:39:42;31.60;81.60
1075;DHT22;526;51.392;12.448;2023-08-21T14:42:08;31.50;81.70
1075;DHT22;526;51.392;12.448;2023-08-21T14:44:34;31.40;81.60
1075;DHT22;526;51.392;12.448;2023-08-21T14:46:59;31.40;80.70
1075;DHT22;526;51.392;12.448;2023-08-21T14:49:25;31.30;81.10
1075;DHT22;526;51.392;12.448;2023-08-21T14:51:51;31.30;81.80
1075;DHT22;526;51.392;12.448;2023-08-21T14:54:17;31.10;79.80
1075;DHT22;526;51.392;12.448;2023-08-21T14:56:42;30.90;80.50
1075;DHT22;526;51.392;12.448;2023-08-21T14:59:08;30.80;81.80
1075;DHT22;526;51.392;12.448;2023-08-21T15:01:37;30.90;82.60
1075;DHT22;526;51.392;12.448;2023-08-21T15:04:04;31.00;84.00
1075;DHT22;526;51.392;12.448;2023-08-21T15:06:29;31.20;82.60
1075;DHT22;526;51.392;12.448;2023-08-21T15:08:55;31.10;82.20
1075;DHT22;526;51.392;12.448;2023-08-21T15:11:20;31.00;81.90
1075;DHT22;526;51.392;12.448;2023-08-21T15:13:46;30.70;81.50
1075;DHT22;526;51.392;12.448;2023-08-21T15:16:12;30.50;82.40
1075;DHT22;526;51.392;12.448;2023-08-21T15:18:37;30.20;82.70
1075;DHT22;526;51.392;12.448;2023-08-21T15:21:03;29.90;82.80
1075;DHT22;526;51.392;12.448;2023-08-21T15:23:28;29.80;84.40
1075;DHT22;526;51.392;12.448;2023-08-21T15:25:54;29.80;83.50
1075;DHT22;526;51.392;12.448;2023-08-21T15:28:19;29.70;84.00
1075;DHT22;526;51.392;12.448;2023-08-21T15:30:45;29.60;83.90
1075;DHT22;526;51.392;12.448;2023-08-21T15:33:10;29.50;84.50
1075;DHT22;526;51.392;12.448;2023-08-21T15:35:36;29.30;84.20
1075;DHT22;526;51.392;12.448;2023-08-21T15:38:02;29.20;84.50
1075;DHT22;526;51.392;12.448;2023-08-21T15:40:28;29.00;85.30
1075;DHT22;526;51.392;12.448;2023-08-21T15:42:54;28.90;85.40
1075;DHT22;526;51.392;12.448;2023-08-21T15:45:20;28.80;85.50
1075;DHT22;526;51.392;12.448;2023-08-21T15:47:47;28.80;86.70
1075;DHT22;526;51.392;12.448;2023-08-21T15:50:14;28.80;88.10
1075;DHT22;526;51.392;12.448;2023-08-21T15:52:39;28.80;89.80
1075;DHT22;526;51.392;12.448;2023-08-21T15:55:05;28.90;89.10
1075;DHT22;526;51.392;12.448;2023-08-21T15:57:31;28.80;87.80
1075;DHT22;526;51.392;12.448;2023-08-21T15:59:57;28.70;87.00
1075;DHT22;526;51.392;12.448;2023-08-21T16:02:22;28.70;87.30
1075;DHT22;526;51.392;12.448;2023-08-21T16:04:48;28.60;86.90
1075;DHT22;526;51.392;12.448;2023-08-21T16:07:14;28.50;87.30
1075;DHT22;526;51.392;12.448;2023-08-21T16:09:39;28.40;87.30
1075;DHT22;526;51.392;12.448;2023-08-21T16:12:05;28.30;87.40
1075;DHT22;526;51.392;12.448;2023-08-21T16:14:30;28.30;87.60
1075;DHT22;526;51.392;12.448;2023-08-21T16:16:56;28.20;88.20
1075;DHT22;526;51.392;12.448;2023-08-21T16:19:25;28.10;88.00
1075;DHT22;526;51.392;12.448;2023-08-21T16:21:50;28.10;88.40
1075;DHT22;526;51.392;12.448;2023-08-21T16:24:16;28.00;88.20
1075;DHT22;526;51.392;12.448;2023-08-21T16:26:48;27.90;88.40
1075;DHT22;526;51.392;12.448;2023-08-21T16:29:15;27.90;88.70
1075;DHT22;526;51.392;12.448;2023-08-21T16:31:42;28.10;89.50
1075;DHT22;526;51.392;12.448;2023-08-21T16:34:09;28.30;89.50
1075;DHT22;526;51.392;12.448;2023-08-21T16:36:35;28.50;90.00
1075;DHT22;526;51.392;12.448;2023-08-21T16:39:00;28.70;90.10
1075;DHT22;526;51.392;12.448;2023-08-21T16:41:26;28.80;90.00
1075;DHT22;526;51.392;12.448;2023-08-21T16:43:52;29.00;88.90
1075;DHT22;526;51.392;12.448;2023-08-21T16:46:17;29.00;87.60
1075;DHT22;526;51.392;12.448;2023-08-21T16:48:43;28.90;87.70
1075;DHT22;526;51.392;12.448;2023-08-21T16:51:08;28.90;87.90
1075;DHT22;526;51.392;12.448;2023-08-21T16:53:34;28.90;87.30
1075;DHT22;526;51.392;12.448;2023-08-21T16:55:59;28.80;87.10
1075;DHT22;526;51.392;12.448;2023-08-21T16:58:25;28.80;87.00
1075;DHT22;526;51.392;12.448;2023-08-21T17:00:51;28.60;87.50
1075;DHT22;526;51.392;12.448;2023-08-21T17:03:19;28.50;86.30
1075;DHT22;526;51.392;12.448;2023-08-21T17:05:45;28.30;87.10
1075;DHT22;526;51.392;12.448;2023-08-21T17:08:11;28.20;86.80
1075;DHT22;526;51.392;12.448;2023-08-21T17:10:37;28.10;87.00
1075;DHT22;526;51.392;12.448;2023-08-21T17:13:02;27.90;87.70
1075;DHT22;526;51.392;12.448;2023-08-21T17:15:28;27.80;88.80
1075;DHT22;526;51.392;12.448;2023-08-21T17:17:54;27.70;88.20
1075;DHT22;526;51.392;12.448;2023-08-21T17:20:20;27.60;88.80
1075;DHT22;526;51.392;12.448;2023-08-21T17:22:46;27.50;88.50
1075;DHT22;526;51.392;12.448;2023-08-21T17:25:12;27.40;88.90
1075;DHT22;526;51.392;12.448;2023-08-21T17:27:37;27.30;88.90
1075;DHT22;526;51.392;12.448;2023-08-21T17:30:05;27.10;89.30
1075;DHT22;526;51.392;12.448;2023-08-21T17:32:31;27.10;89.60
1075;DHT22;526;51.392;12.448;2023-08-21T17:34:56;27.00;90.40
1075;DHT22;526;51.392;12.448;2023-08-21T17:37:22;26.90;90.40
1075;DHT22;526;51.392;12.448;2023-08-21T17:39:47;26.90;90.50
1075;DHT22;526;51.392;12.448;2023-08-21T17:42:13;26.80;90.70
1075;DHT22;526;51.392;12.448;2023-08-21T17:44:39;26.70;91.00
1075;DHT22;526;51.392;12.448;2023-08-21T17:47:05;26.70;91.10
1075;DHT22;526;51.392;12.448;2023-08-21T17:49:31;26.60;91.10
1075;DHT22;526;51.392;12.448;2023-08-21T17:51:57;26.60;91.40
1075;DHT22;526;51.392;12.448;2023-08-21T17:54:23;26.50;91.50
1075;DHT22;526;51.392;12.448;2023-08-21T17:56:48;26.50;91.70
1075;DHT22;526;51.392;12.448;2023-08-21T17:59:14;26.40;92.20
1075;DHT22;526;51.392;12.448;2023-08-21T18:01:39;26.40;92.00
1075;DHT22;526;51.392;12.448;2023-08-21T18:04:05;26.30;91.90
1075;DHT22;526;51.392;12.448;2023-08-21T18:06:30;26.20;92.30
1075;DHT22;526;51.392;12.448;2023-08-21T18:08:56;26.20;92.20
1075;DHT22;526;51.392;12.448;2023-08-21T18:11:22;26.10;92.00
1075;DHT22;526;51.392;12.448;2023-08-21T18:13:47;26.00;91.80
1075;DHT22;526;51.392;12.448;2023-08-21T18:16:13;26.00;91.90
1075;DHT22;526;51.392;12.448;2023-08-21T18:18:39;25.90;91.70
1075;DHT22;526;51.392;12.448;2023-08-21T18:21:11;25.90;91.60
1075;DHT22;526;51.392;12.448;2023-08-21T18:23:37;25.80;91.70
1075;DHT22;526;51.392;12.448;2023-08-21T18:26:03;25.70;91.90
1075;DHT22;526;51.392;12.448;2023-08-21T18:28:28;25.70;91.80
1075;DHT22;526;51.392;12.448;2023-08-21T18:30:59;25.60;92.10
1075;DHT22;526;51.392;12.448;2023-08-21T18:33:25;25.60;92.30
1075;DHT22;526;51.392;12.448;2023-08-21T18:35:51;25.50;92.30
1075;DHT22;526;51.392;12.448;2023-08-21T18:38:18;25.50;92.40
1075;DHT22;526;51.392;12.448;2023-08-21T18:40:44;25.40;92.80
1075;DHT22;526;51.392;12.448;2023-08-21T18:43:12;25.40;92.70
1075;DHT22;526;51.392;12.448;2023-08-21T18:45:38;25.30;92.80
1075;DHT22;526;51.392;12.448;2023-08-21T18:48:04;25.20;92.90
1075;DHT22;526;51.392;12.448;2023-08-21T18:53:01;25.10;93.00
1075;DHT22;526;51.392;12.448;2023-08-21T18:55:28;25.10;93.20
1075;DHT22;526;51.392;12.448;2023-08-21T18:57:53;25.00;93.50
1075;DHT22;526;51.392;12.448;2023-08-21T19:00:19;25.00;93.40
1075;DHT22;526;51.392;12.448;2023-08-21T19:02:45;24.90;93.50
1075;DHT22;526;51.392;12.448;2023-08-21T19:05:10;24.90;93.70
1075;DHT22;526;51.392;12.448;2023-08-21T19:07:40;24.80;93.60
1075;DHT22;526;51.392;12.448;2023-08-21T19:10:07;24.80;93.80
1075;DHT22;526;51.392;12.448;2023-08-21T19:12:33;24.70;93.80
1075;DHT22;526;51.392;12.448;2023-08-21T19:14:59;24.70;94.20
1075;DHT22;526;51.392;12.448;2023-08-21T19:17:25;24.60;94.10
1075;DHT22;526;51.392;12.448;2023-08-21T19:19:51;24.60;94.30
1075;DHT22;526;51.392;12.448;2023-08-21T19:22:17;24.50;94.60
1075;DHT22;526;51.392;12.448;2023-08-21T19:24:43;24.50;94.90
1075;DHT22;526;51.392;12.448;2023-08-21T19:27:08;24.50;95.00
1075;DHT22;526;51.392;12.448;2023-08-21T19:29:37;24.50;95.30
1075;DHT22;526;51.392;12.448;2023-08-21T19:32:03;24.40;95.70
1075;DHT22;526;51.392;12.448;2023-08-21T19:34:28;24.40;96.10
1075;DHT22;526;51.392;12.448;2023-08-21T19:36:55;24.30;96.30
1075;DHT22;526;51.392;12.448;2023-08-21T19:39:21;24.30;96.40
1075;DHT22;526;51.392;12.448;2023-08-21T19:41:47;24.20;95.90
1075;DHT22;526;51.392;12.448;2023-08-21T19:44:12;24.20;95.80
1075;DHT22;526;51.392;12.448;2023-08-21T19:46:38;24.10;95.80
1075;DHT22;526;51.392;12.448;2023-08-21T19:49:03;24.10;95.60
1075;DHT22;526;51.392;12.448;2023-08-21T19:51:29;24.00;96.00
1075;DHT22;526;51.392;12.448;2023-08-21T19:53:55;24.00;95.90
1075;DHT22;526;51.392;12.448;2023-08-21T19:56:21;23.90;95.80
1075;DHT22;526;51.392;12.448;2023-08-21T19:58:46;23.90;95.90
1075;DHT22;526;51.392;12.448;2023-08-21T20:01:12;23.90;95.80
1075;DHT22;526;51.392;12.448;2023-08-21T20:03:37;23.80;95.90
1075;DHT22;526;51.392;12.448;2023-08-21T20:06:04;23.80;96.10
1075;DHT22;526;51.392;12.448;2023-08-21T20:08:31;23.80;96.10
1075;DHT22;526;51.392;12.448;2023-08-21T20:10:57;23.80;96.10
1075;DHT22;526;51.392;12.448;2023-08-21T20:13:25;23.80;96.20